createdAt,value
2018-01-15T00:02:24.652Z,22.10
2018-01-15T00:04:55.284Z,21.03
2018-01-15T00:07:24.843Z,22.87
2018-01-15T00:09:54.387Z,23.83
2018-01-15T00:12:24.286Z,22.50
2018-01-15T00:14:53.853Z,23.40
2018-01-15T00:17:24.935Z,21.77
2018-01-15T00:19:55.198Z,24.77
2018-01-15T00:22:30.331Z,22.80
2018-01-15T00:24:59.531Z,21.37
2018-01-15T00:27:29.019Z,22.67
2018-01-15T00:29:58.796Z,22.67
2018-01-15T00:32:28.288Z,20.43
2018-01-15T00:34:58.160Z,22.80
2018-01-15T00:37:27.634Z,21.30
2018-01-15T00:39:57.139Z,21.57
2018-01-15T00:42:27.778Z,21.27
2018-01-15T00:44:57.267Z,22.40
2018-01-15T00:47:26.801Z,21.70
2018-01-15T00:49:56.680Z,21.07
2018-01-15T00:52:26.192Z,22.90
2018-01-15T00:54:55.692Z,22.50
2018-01-15T00:57:25.582Z,23.83
2018-01-15T00:59:55.094Z,22.63
2018-01-15T01:02:24.572Z,23.63
2018-01-15T01:04:55.205Z,22.33
2018-01-15T01:07:25.244Z,23.13
2018-01-15T01:09:54.749Z,22.37
2018-01-15T01:12:24.519Z,23.03
2018-01-15T01:14:54.014Z,20.13
2018-01-15T01:17:24.216Z,21.13
2018-01-15T01:19:53.704Z,21.97
2018-01-15T01:22:26.229Z,20.30
2018-01-15T01:24:55.716Z,21.77
2018-01-15T01:27:25.229Z,20.73
2018-01-15T01:29:55.079Z,20.43
2018-01-15T01:32:24.568Z,19.87
2018-01-15T01:34:54.052Z,20.20
2018-01-15T01:37:23.868Z,20.47
2018-01-15T01:39:53.422Z,21.47
2018-01-15T01:42:24.781Z,19.87
2018-01-15T01:44:55.044Z,20.97
2018-01-15T01:47:24.703Z,20.60
2018-01-15T01:49:55.018Z,19.50
2018-01-15T01:52:25.279Z,21.07
2018-01-15T01:54:54.818Z,20.30
2018-01-15T01:57:25.537Z,19.87
2018-01-15T01:59:55.020Z,20.23
2018-01-15T02:02:24.550Z,20.23
2018-01-15T02:04:54.330Z,21.30
2018-01-15T02:07:23.848Z,21.00
2018-01-15T02:09:53.345Z,20.80
2018-01-15T02:12:25.314Z,20.33
2018-01-15T02:14:54.917Z,20.77
2018-01-15T02:17:25.589Z,20.90
2018-01-15T02:19:55.092Z,20.07
2018-01-15T02:22:24.588Z,20.70
2018-01-15T02:24:54.171Z,21.60
2018-01-15T02:27:23.519Z,21.13
2018-01-15T02:29:54.615Z,20.10
2018-01-15T02:32:25.036Z,19.90
2018-01-15T02:34:54.899Z,19.97
2018-01-15T02:37:24.131Z,20.47
2018-01-15T02:39:53.355Z,19.40
2018-01-15T02:42:23.775Z,20.67
2018-01-15T02:44:55.080Z,20.73
2018-01-15T02:47:25.236Z,21.03
2018-01-15T02:49:54.736Z,20.73
2018-01-15T02:52:25.355Z,20.63
2018-01-15T02:54:55.287Z,20.17
2018-01-15T02:57:25.232Z,19.73
2018-01-15T02:59:54.704Z,20.07
2018-01-15T03:02:25.231Z,20.33
2018-01-15T03:04:54.714Z,21.40
2018-01-15T03:07:24.247Z,20.97
2018-01-15T03:09:53.835Z,19.37
2018-01-15T03:12:23.324Z,18.50
2018-01-15T03:14:53.792Z,20.03
2018-01-15T03:17:25.210Z,18.90
2018-01-15T03:19:55.167Z,20.37
2018-01-15T03:22:24.655Z,19.03
2018-01-15T03:24:54.163Z,19.83
2018-01-15T03:27:24.078Z,18.67
2018-01-15T03:29:53.571Z,18.63
2018-01-15T03:32:25.005Z,20.53
2018-01-15T03:34:54.576Z,19.60
2018-01-15T03:37:24.073Z,19.67
2018-01-15T03:39:53.677Z,18.50
2018-01-15T03:42:24.407Z,18.33
2018-01-15T03:44:53.899Z,17.87
2018-01-15T03:47:23.435Z,18.67
2018-01-15T03:49:55.088Z,19.00
2018-01-15T03:52:24.579Z,19.20
2018-01-15T03:54:53.847Z,19.90
2018-01-15T03:57:23.727Z,17.53
2018-01-15T03:59:54.689Z,18.53
2018-01-15T04:02:24.958Z,18.33
2018-01-15T04:04:54.472Z,18.13
2018-01-15T04:07:25.510Z,19.40
2018-01-15T04:09:55.031Z,18.83
2018-01-15T04:12:24.541Z,19.63
2018-01-15T04:14:54.431Z,18.90
2018-01-15T04:17:25.194Z,19.23
2018-01-15T04:19:54.697Z,18.87
2018-01-15T04:22:24.187Z,16.67
2018-01-15T04:24:53.743Z,19.77
2018-01-15T04:27:25.491Z,18.13
2018-01-15T04:29:55.062Z,19.60
2018-01-15T04:32:24.528Z,19.30
2018-01-15T04:34:54.339Z,19.07
2018-01-15T04:37:25.154Z,18.33
2018-01-15T04:39:54.657Z,18.07
2018-01-15T04:42:24.150Z,18.57
2018-01-15T04:44:55.523Z,18.97
2018-01-15T04:47:25.020Z,18.77
2018-01-15T04:49:54.544Z,17.90
2018-01-15T04:52:24.458Z,18.10
2018-01-15T04:54:53.957Z,17.73
2018-01-15T04:57:23.462Z,17.93
2018-01-15T04:59:55.123Z,18.10
2018-01-15T05:02:25.399Z,18.00
2018-01-15T05:04:54.909Z,18.63
2018-01-15T05:07:24.447Z,18.77
2018-01-15T05:09:53.992Z,17.50
2018-01-15T05:12:23.881Z,18.23
2018-01-15T05:14:53.376Z,18.13
2018-01-15T05:17:24.737Z,18.83
2018-01-15T05:19:54.278Z,18.97
2018-01-15T05:22:24.165Z,18.03
2018-01-15T05:24:53.855Z,19.20
2018-01-15T05:27:24.761Z,16.30
2018-01-15T05:29:54.831Z,17.83
2018-01-15T05:32:24.660Z,17.17
2018-01-15T05:34:54.159Z,18.63
2018-01-15T05:37:23.646Z,18.87
2018-01-15T05:39:55.243Z,17.50
2018-01-15T05:42:25.523Z,18.63
2018-01-15T05:44:55.412Z,18.53
2018-01-15T05:47:24.898Z,19.20
2018-01-15T05:49:54.393Z,18.03
2018-01-15T05:52:24.672Z,19.87
2018-01-15T05:54:54.177Z,18.67
2018-01-15T05:57:23.748Z,18.37
2018-01-15T05:59:53.725Z,19.90
2018-01-15T06:02:25.203Z,18.43
2018-01-15T06:04:55.043Z,19.23
2018-01-15T06:07:25.123Z,18.53
2018-01-15T06:09:55.611Z,19.43
2018-01-15T06:12:25.452Z,18.40
2018-01-15T06:14:55.407Z,19.90
2018-01-15T06:17:24.900Z,18.97
2018-01-15T06:19:54.431Z,19.30
2018-01-15T06:22:24.883Z,18.77
2018-01-15T06:24:55.923Z,19.40
2018-01-15T06:27:26.015Z,19.37
2018-01-15T06:29:55.523Z,19.67
2018-01-15T06:32:25.209Z,17.87
2018-01-15T06:34:55.051Z,19.70
2018-01-15T06:37:24.540Z,19.30
2018-01-15T06:39:54.112Z,20.03
2018-01-15T06:42:23.967Z,18.00
2018-01-15T06:44:53.464Z,17.70
2018-01-15T06:47:24.811Z,19.13
2018-01-15T06:49:54.374Z,19.37
2018-01-15T06:52:24.018Z,17.87
2018-01-15T06:54:53.542Z,17.80
2018-01-15T06:57:25.158Z,19.10
2018-01-15T06:59:54.667Z,19.27
2018-01-15T07:02:24.148Z,18.93
2018-01-15T07:04:53.648Z,18.53
2018-01-15T07:07:24.294Z,20.63
2018-01-15T07:09:53.887Z,18.27
2018-01-15T07:12:23.376Z,18.53
2018-01-15T07:14:55.326Z,17.50
2018-01-15T07:17:24.908Z,19.23
2018-01-15T07:19:55.231Z,19.60
2018-01-15T07:22:24.712Z,18.63
2018-01-15T07:24:55.238Z,17.90
2018-01-15T07:27:24.739Z,18.93
2018-01-15T07:29:54.262Z,18.17
2018-01-15T07:32:23.486Z,18.73
2018-01-15T07:34:54.950Z,18.73
2018-01-15T07:37:24.468Z,18.97
2018-01-15T07:39:53.959Z,19.20
2018-01-15T07:42:23.505Z,18.67
2018-01-15T07:44:54.752Z,17.97
2018-01-15T07:47:24.396Z,17.97
2018-01-15T07:49:54.709Z,18.10
2018-01-15T07:52:24.196Z,19.83
2018-01-15T07:54:53.716Z,20.27
2018-01-15T07:57:24.426Z,19.13
2018-01-15T07:59:53.930Z,19.00
2018-01-15T08:02:23.460Z,18.77
2018-01-15T08:04:54.719Z,18.47
2018-01-15T08:07:24.964Z,18.40
2018-01-15T08:09:54.993Z,20.67
2018-01-15T08:12:25.911Z,18.50
2018-01-15T08:14:55.393Z,18.67
2018-01-15T08:17:24.891Z,18.27
2018-01-15T08:19:55.171Z,18.47
2018-01-15T08:22:25.139Z,21.43
2018-01-15T08:24:55.226Z,18.53
2018-01-15T08:27:24.750Z,19.73
2018-01-15T08:29:54.281Z,20.60
2018-01-15T08:32:23.835Z,17.27
2018-01-15T08:34:53.548Z,19.43
2018-01-15T08:37:24.032Z,21.03
2018-01-15T08:39:55.132Z,18.93
2018-01-15T08:42:25.228Z,20.30
2018-01-15T08:44:54.862Z,17.10
2018-01-15T08:47:25.178Z,18.27
2018-01-15T08:49:54.716Z,18.67
2018-01-15T08:52:24.222Z,15.37
2018-01-15T08:54:53.757Z,18.23
2018-01-15T08:57:23.343Z,18.47
2018-01-15T08:59:52.851Z,17.93
2018-01-15T09:02:24.195Z,16.97
2018-01-15T09:04:53.801Z,17.17
2018-01-15T09:07:23.575Z,15.90
2018-01-15T09:09:54.948Z,16.87
2018-01-15T09:12:25.016Z,16.80
2018-01-15T09:14:54.547Z,15.00
2018-01-15T09:17:24.069Z,15.57
2018-01-15T09:19:53.596Z,15.53
2018-01-15T09:22:24.969Z,15.50
2018-01-15T09:24:54.695Z,14.43
2018-01-15T09:27:25.731Z,14.83
2018-01-15T09:29:55.235Z,14.23
2018-01-15T09:32:24.783Z,14.67
2018-01-15T09:34:54.300Z,14.33
2018-01-15T09:37:23.834Z,14.17
2018-01-15T09:39:53.341Z,12.93
2018-01-15T09:42:24.719Z,13.30
2018-01-15T09:44:54.968Z,14.30
2018-01-15T09:47:25.487Z,15.33
2018-01-15T09:49:54.985Z,13.40
2018-01-15T09:52:25.175Z,12.83
2018-01-15T09:54:55.275Z,11.67
2018-01-15T09:57:24.792Z,11.63
2018-01-15T09:59:54.305Z,12.00
2018-01-15T10:02:25.187Z,12.03
2018-01-15T10:04:54.691Z,12.00
2018-01-15T10:07:24.207Z,10.87
2018-01-15T10:09:55.024Z,11.40
2018-01-15T10:12:24.529Z,12.03
2018-01-15T10:14:54.031Z,11.63
2018-01-15T10:17:23.578Z,12.80
2018-01-15T10:19:54.984Z,11.37
2018-01-15T10:22:24.497Z,10.77
2018-01-15T10:24:53.474Z,9.97
2018-01-15T10:27:25.313Z,10.50
2018-01-15T10:29:54.995Z,11.10
2018-01-15T10:32:24.490Z,10.80
2018-01-15T10:34:54.008Z,10.00
2018-01-15T10:37:23.622Z,10.27
2018-01-15T10:39:54.538Z,10.37
2018-01-15T10:42:24.065Z,10.67
2018-01-15T10:44:53.604Z,9.77
2018-01-15T10:47:25.123Z,10.33
2018-01-15T10:49:56.307Z,10.07
2018-01-15T10:52:25.852Z,10.23
2018-01-15T10:54:55.232Z,8.53
2018-01-15T10:57:25.217Z,7.97
2018-01-15T10:59:55.248Z,7.70
2018-01-15T11:02:24.764Z,8.10
2018-01-15T11:04:54.456Z,7.63
2018-01-15T11:07:24.723Z,8.57
2018-01-15T11:09:54.236Z,8.77
2018-01-15T11:12:23.789Z,7.97
2018-01-15T11:14:55.815Z,8.57
2018-01-15T11:17:25.326Z,8.00
2018-01-15T11:19:54.840Z,7.50
2018-01-15T11:22:24.532Z,8.27
2018-01-15T11:24:54.140Z,8.27
2018-01-15T11:27:23.628Z,7.80
2018-01-15T11:29:54.495Z,9.00
2018-01-15T11:32:24.080Z,8.50
2018-01-15T11:34:53.554Z,8.63
2018-01-15T11:37:22.785Z,8.23
2018-01-15T11:39:52.279Z,8.50
2018-01-15T11:42:22.935Z,7.80
2018-01-15T11:44:53.597Z,8.40
2018-01-15T11:47:25.168Z,8.57
2018-01-15T11:49:55.331Z,8.80
2018-01-15T11:52:24.837Z,9.10
2018-01-15T11:54:54.323Z,9.83
2018-01-15T11:57:23.821Z,8.33
2018-01-15T11:59:54.663Z,8.80
2018-01-15T12:02:24.178Z,8.30
2018-01-15T12:04:54.435Z,7.93
2018-01-15T12:07:23.963Z,8.03
2018-01-15T12:09:53.155Z,8.40
2018-01-15T12:12:24.366Z,7.93
2018-01-15T12:14:53.849Z,8.50
2018-01-15T12:17:23.336Z,8.33
2018-01-15T12:19:52.864Z,7.60
2018-01-15T12:22:24.035Z,7.70
2018-01-15T12:24:53.614Z,7.80
2018-01-15T12:27:24.902Z,8.23
2018-01-15T12:29:54.417Z,7.57
2018-01-15T12:32:23.916Z,8.07
2018-01-15T12:34:53.436Z,7.97
2018-01-15T12:37:25.120Z,7.70
2018-01-15T12:39:55.223Z,7.03
2018-01-15T12:42:24.724Z,8.33
2018-01-15T12:44:54.271Z,8.17
2018-01-15T12:47:23.784Z,7.47
2018-01-15T12:49:54.717Z,8.20
2018-01-15T12:52:23.943Z,7.93
2018-01-15T12:54:54.744Z,8.70
2018-01-15T12:57:25.171Z,8.70
2018-01-15T12:59:55.252Z,8.57
2018-01-15T13:02:24.735Z,9.37
2018-01-15T13:04:54.236Z,8.30
2018-01-15T13:07:35.048Z,8.07
2018-01-15T13:10:03.920Z,8.67
2018-01-15T13:12:33.419Z,8.93
2018-01-15T13:15:03.275Z,8.57
2018-01-15T13:17:32.759Z,8.50
2018-01-15T13:20:02.247Z,8.00
2018-01-15T13:22:31.767Z,7.57
2018-01-15T13:25:01.247Z,7.33
2018-01-15T13:27:30.840Z,8.10
2018-01-15T13:30:00.480Z,7.93
2018-01-15T13:32:30.165Z,7.97
2018-01-15T13:34:59.660Z,7.67
2018-01-15T13:37:29.148Z,8.50
2018-01-15T13:39:58.632Z,7.93
2018-01-15T13:42:28.899Z,7.90
2018-01-15T13:44:58.426Z,8.40
2018-01-15T13:47:28.021Z,9.13
2018-01-15T13:49:57.861Z,9.23
2018-01-15T13:52:27.347Z,9.13
2018-01-15T13:54:56.532Z,9.30
2018-01-15T13:57:26.795Z,8.90
2018-01-15T13:59:56.327Z,9.00
2018-01-15T14:02:27.256Z,8.27
2018-01-15T14:04:56.738Z,8.20
2018-01-15T14:07:27.348Z,8.47
2018-01-15T14:09:56.835Z,8.87
2018-01-15T14:12:26.409Z,9.30
2018-01-15T14:14:55.956Z,8.43
2018-01-15T14:17:25.448Z,8.53
2018-01-15T14:19:55.174Z,7.10
2018-01-15T14:22:25.438Z,7.50
2018-01-15T14:24:54.909Z,8.97
2018-01-15T14:27:24.396Z,8.03
2018-01-15T14:29:53.897Z,7.60
2018-01-15T14:32:25.169Z,7.63
2018-01-15T14:34:54.837Z,8.83
2018-01-15T14:37:24.380Z,7.30
2018-01-15T14:39:54.989Z,8.07
2018-01-15T14:42:24.481Z,8.40
2018-01-15T14:44:54.303Z,8.30
2018-01-15T14:47:23.835Z,8.10
2018-01-15T14:49:55.010Z,7.17
2018-01-15T14:52:25.220Z,7.77
2018-01-15T14:54:54.739Z,8.03
2018-01-15T14:57:25.159Z,7.93
2018-01-15T14:59:54.636Z,7.03
2018-01-15T15:02:25.070Z,7.90
2018-01-15T15:04:55.039Z,6.90
2018-01-15T15:07:25.303Z,7.70
2018-01-15T15:09:54.864Z,7.10
2018-01-15T15:12:24.353Z,7.40
2018-01-15T15:14:54.615Z,7.77
2018-01-15T15:17:25.329Z,7.60
2018-01-15T15:19:54.849Z,7.53
2018-01-15T15:22:24.354Z,7.47
2018-01-15T15:24:54.606Z,7.20
2018-01-15T15:27:24.092Z,6.60
2018-01-15T15:29:53.565Z,6.63
2018-01-15T15:32:25.225Z,6.00
2018-01-15T15:34:54.711Z,6.80
2018-01-15T15:37:24.249Z,6.70
2018-01-15T15:39:54.168Z,5.97
2018-01-15T15:42:23.714Z,5.63
2018-01-15T15:44:55.570Z,6.23
2018-01-15T15:47:25.245Z,5.37
2018-01-15T15:49:54.913Z,6.07
2018-01-15T15:52:24.424Z,5.33
2018-01-15T15:54:53.581Z,4.87
2018-01-15T15:57:25.031Z,4.53
2018-01-15T15:59:54.625Z,4.73
2018-01-15T16:02:24.083Z,5.13
2018-01-15T16:04:53.575Z,4.73
2018-01-15T16:07:23.088Z,5.40
2018-01-15T16:09:54.195Z,4.03
2018-01-15T16:12:23.670Z,5.20
2018-01-15T16:14:54.607Z,5.33
2018-01-15T16:17:24.078Z,4.73
2018-01-15T16:19:53.593Z,4.43
2018-01-15T16:22:32.095Z,4.83
2018-01-15T16:25:01.291Z,4.73
2018-01-15T16:27:30.912Z,4.30
2018-01-15T16:30:00.753Z,4.37
2018-01-15T16:32:30.985Z,4.20
2018-01-15T16:35:00.563Z,3.73
2018-01-15T16:37:30.051Z,3.80
2018-01-15T16:40:00.118Z,3.90
2018-01-15T16:42:29.605Z,3.77
2018-01-15T16:44:59.068Z,3.87
2018-01-15T16:47:28.582Z,3.97
2018-01-15T16:49:57.886Z,3.20
2018-01-15T16:52:27.349Z,2.90
2018-01-15T16:54:58.438Z,2.43
2018-01-15T16:57:29.428Z,2.83
2018-01-15T16:59:59.084Z,3.13
2018-01-15T17:02:29.327Z,3.13
2018-01-15T17:04:59.586Z,2.78
2018-01-15T17:07:30.035Z,3.73
2018-01-15T17:10:00.131Z,3.13
2018-01-15T17:12:29.630Z,2.67
2018-01-15T17:14:59.433Z,2.60
2018-01-15T17:17:30.429Z,2.87
2018-01-15T17:20:00.089Z,2.73
2018-01-15T17:22:29.609Z,3.00
2018-01-15T17:24:59.117Z,2.50
2018-01-15T17:27:29.536Z,2.30
2018-01-15T17:29:59.804Z,2.20
2018-01-15T17:32:29.589Z,2.33
2018-01-15T17:34:59.095Z,2.20
2018-01-15T17:37:28.628Z,2.10
2018-01-15T17:39:58.536Z,2.20
2018-01-15T17:42:28.029Z,2.30
2018-01-15T17:44:57.556Z,2.30
2018-01-15T17:47:27.416Z,2.50
2018-01-15T17:49:56.920Z,2.50
2018-01-15T17:52:26.517Z,2.40
2018-01-15T17:54:56.425Z,2.50
2018-01-15T17:57:25.909Z,2.00
2018-01-15T17:59:55.426Z,2.27
2018-01-15T18:02:24.929Z,1.80
2018-01-15T18:04:55.187Z,2.53
2018-01-15T18:07:25.449Z,2.30
2018-01-15T18:09:54.928Z,2.20
2018-01-15T18:12:24.418Z,2.20
2018-01-15T18:14:53.950Z,2.17
2018-01-15T18:17:24.184Z,2.20
2018-01-15T18:19:53.691Z,2.37
2018-01-15T18:22:23.082Z,2.50
2018-01-15T18:24:52.560Z,2.50
2018-01-15T18:27:22.100Z,2.20
2018-01-15T18:29:51.649Z,2.50
2018-01-15T18:32:21.189Z,2.60
2018-01-15T18:34:50.682Z,2.10
2018-01-15T18:37:20.497Z,2.10
2018-01-15T18:39:50.260Z,2.20
2018-01-15T18:42:20.023Z,2.27
2018-01-15T18:44:49.514Z,2.63
2018-01-15T18:47:19.020Z,2.30
2018-01-15T18:49:48.517Z,2.23
2018-01-15T18:52:18.023Z,2.20
2018-01-15T18:54:47.548Z,2.00
2018-01-15T18:57:17.204Z,2.10
2018-01-15T18:59:46.695Z,1.90
2018-01-15T19:02:16.273Z,1.80
2018-01-15T19:04:45.769Z,1.73
2018-01-15T19:07:15.246Z,2.10
2018-01-15T19:09:44.787Z,1.90
2018-01-15T19:12:14.125Z,2.10
2018-01-15T19:14:44.381Z,2.20
2018-01-15T19:17:14.496Z,2.37
2018-01-15T19:19:43.977Z,2.60
2018-01-15T19:22:13.614Z,2.10
2018-01-15T19:24:44.212Z,2.17
2018-01-15T19:27:13.517Z,2.20
2018-01-15T19:29:42.835Z,2.37
2018-01-15T19:32:12.442Z,2.27
2018-01-15T19:37:48.961Z,2.30
2018-01-15T19:40:19.021Z,2.50
2018-01-15T19:42:48.612Z,2.23
2018-01-15T19:48:29.433Z,2.20
2018-01-15T19:51:04.834Z,2.30
2018-01-15T19:56:41.751Z,3.03
2018-01-15T19:59:16.337Z,3.10
2018-01-15T20:01:51.374Z,3.07
2018-01-15T20:04:26.437Z,3.43
2018-01-15T20:07:01.490Z,3.60
2018-01-15T20:09:36.429Z,4.30
2018-01-15T20:12:05.765Z,4.30
2018-01-15T20:14:35.115Z,4.17
2018-01-15T20:17:04.606Z,4.33
2018-01-15T20:19:34.501Z,3.77
2018-01-15T20:22:03.977Z,4.17
2018-01-15T20:24:33.460Z,4.13
2018-01-15T20:27:03.294Z,4.40
2018-01-15T20:29:32.775Z,4.13
2018-01-15T20:32:02.434Z,4.57
2018-01-15T20:34:32.284Z,4.97
2018-01-15T20:37:01.782Z,4.77
2018-01-15T20:39:31.268Z,5.03
2018-01-15T20:42:01.308Z,5.13
2018-01-15T20:44:30.809Z,5.33
2018-01-15T20:47:00.330Z,6.17
2018-01-15T20:49:30.198Z,5.80
2018-01-15T20:51:59.373Z,5.97
2018-01-15T20:54:28.941Z,6.10
2018-01-15T20:56:58.449Z,6.57
2018-01-15T20:59:27.944Z,6.87
2018-01-15T21:01:58.677Z,6.63
2018-01-15T21:04:28.160Z,7.20
2018-01-15T21:06:57.733Z,7.03
2018-01-15T21:09:27.230Z,7.07
2018-01-15T21:11:56.706Z,6.73
2018-01-15T21:14:26.198Z,6.17
2018-01-15T21:16:56.020Z,6.03
2018-01-15T21:19:25.529Z,6.27
2018-01-15T21:21:55.029Z,6.10
2018-01-15T21:24:24.896Z,6.20
2018-01-15T21:26:55.173Z,5.30
2018-01-15T21:29:24.733Z,6.50
2018-01-15T21:31:54.232Z,6.40
2018-01-15T21:34:23.724Z,6.17
2018-01-15T21:36:55.058Z,7.53
2018-01-15T21:39:24.544Z,7.03
2018-01-15T21:41:54.801Z,6.30
2018-01-15T21:44:24.712Z,7.13
2018-01-15T21:46:55.472Z,7.50
2018-01-15T21:49:24.981Z,6.97
2018-01-15T21:51:55.382Z,7.63
2018-01-15T21:54:25.447Z,8.53
2018-01-15T21:56:55.711Z,8.63
2018-01-15T21:59:25.286Z,8.83
2018-01-15T22:01:55.014Z,8.47
2018-01-15T22:04:24.510Z,7.70
2018-01-15T22:06:55.080Z,8.07
2018-01-15T22:09:24.571Z,8.23
2018-01-15T22:11:54.059Z,8.10
2018-01-15T22:14:23.947Z,8.07
2018-01-15T22:16:53.427Z,8.53
2018-01-15T22:19:24.694Z,8.93
2018-01-15T22:21:54.246Z,9.17
2018-01-15T22:24:23.789Z,8.40
2018-01-15T22:26:53.707Z,8.83
2018-01-15T22:29:24.967Z,8.23
2018-01-15T22:31:54.471Z,8.37
2018-01-15T22:34:25.100Z,7.57
2018-01-15T22:36:55.357Z,7.80
2018-01-15T22:39:25.648Z,8.60
2018-01-15T22:41:56.019Z,6.80
2018-01-15T22:44:25.507Z,6.77
2018-01-15T22:46:55.760Z,6.57
2018-01-15T22:49:25.242Z,6.77
2018-01-15T22:51:55.478Z,6.17
2018-01-15T22:54:24.951Z,6.10
2018-01-15T22:56:54.539Z,5.80
2018-01-15T22:59:24.096Z,4.80
2018-01-15T23:01:53.596Z,5.53
2018-01-15T23:04:25.618Z,4.90
2018-01-15T23:06:55.100Z,5.13
2018-01-15T23:09:24.632Z,4.00
2018-01-15T23:11:54.209Z,5.17
2018-01-15T23:14:23.715Z,4.50
2018-01-15T23:16:55.619Z,4.57
2018-01-15T23:19:25.107Z,4.17
2018-01-15T23:21:54.660Z,4.70
2018-01-15T23:24:25.193Z,3.83
2018-01-15T23:26:54.675Z,3.50
2018-01-15T23:29:24.163Z,3.37
2018-01-15T23:31:55.343Z,3.67
2018-01-15T23:34:25.605Z,3.73
2018-01-15T23:36:55.853Z,3.70
2018-01-15T23:39:25.374Z,3.17
2018-01-15T23:41:55.632Z,3.60
2018-01-15T23:44:25.168Z,3.60
2018-01-15T23:46:55.156Z,3.40
2018-01-15T23:49:24.658Z,3.50
2018-01-15T23:51:55.273Z,3.53
2018-01-15T23:54:32.923Z,2.90
2018-01-15T23:57:02.476Z,3.63
2018-01-15T23:59:32.010Z,3.40
